createdAt,value
2018-10-09T00:01:55.518Z,84.30
2018-10-09T00:04:23.793Z,84.00
2018-10-09T00:06:52.089Z,84.20
2018-10-09T00:09:20.355Z,84.30
2018-10-09T00:11:48.657Z,84.20
2018-10-09T00:14:16.959Z,84.30
2018-10-09T00:16:45.250Z,84.20
2018-10-09T00:19:13.539Z,84.50
2018-10-09T00:21:41.838Z,84.20
2018-10-09T00:24:10.116Z,84.70
2018-10-09T00:26:38.415Z,84.80
2018-10-09T00:29:06.694Z,84.70
2018-10-09T00:31:35.028Z,84.90
2018-10-09T00:34:03.300Z,84.60
2018-10-09T00:36:31.629Z,84.80
2018-10-09T00:38:59.902Z,85.10
2018-10-09T00:41:28.221Z,85.40
2018-10-09T00:43:56.510Z,85.40
2018-10-09T00:46:24.818Z,85.50
2018-10-09T00:48:53.107Z,85.90
2018-10-09T00:51:21.410Z,86.20
2018-10-09T00:53:49.682Z,86.60
2018-10-09T00:56:17.982Z,86.90
2018-10-09T00:58:46.265Z,87.00
2018-10-09T01:01:14.563Z,87.40
2018-10-09T01:03:42.850Z,87.40
2018-10-09T01:06:11.146Z,87.00
2018-10-09T01:08:39.425Z,86.70
2018-10-09T01:11:07.730Z,86.90
2018-10-09T01:13:36.017Z,87.20
2018-10-09T01:16:04.315Z,87.80
2018-10-09T01:18:32.604Z,88.60
2018-10-09T01:21:00.911Z,89.00
2018-10-09T01:23:29.200Z,89.30
2018-10-09T01:25:57.498Z,89.30
2018-10-09T01:28:25.790Z,89.50
2018-10-09T01:30:54.089Z,89.40
2018-10-09T01:33:22.367Z,89.60
2018-10-09T01:35:50.662Z,89.80
2018-10-09T01:38:18.943Z,89.90
2018-10-09T01:40:47.247Z,90.00
2018-10-09T01:43:15.542Z,90.00
2018-10-09T01:45:43.839Z,90.00
2018-10-09T01:48:12.127Z,90.00
2018-10-09T01:50:40.419Z,90.00
2018-10-09T01:53:08.709Z,89.80
2018-10-09T01:55:37.010Z,90.00
2018-10-09T01:58:05.300Z,90.00
2018-10-09T02:00:33.608Z,89.50
2018-10-09T02:03:01.887Z,89.90
2018-10-09T02:05:30.188Z,90.00
2018-10-09T02:07:58.478Z,90.00
2018-10-09T02:10:26.782Z,89.80
2018-10-09T02:12:55.046Z,89.90
2018-10-09T02:15:23.318Z,90.20
2018-10-09T02:17:51.642Z,89.70
2018-10-09T02:20:19.936Z,89.50
2018-10-09T02:22:48.238Z,89.30
2018-10-09T02:25:16.523Z,89.80
2018-10-09T02:27:44.829Z,89.90
2018-10-09T02:30:13.119Z,90.40
2018-10-09T02:32:41.406Z,90.10
2018-10-09T02:35:09.690Z,90.10
2018-10-09T02:37:38.606Z,90.10
2018-10-09T02:40:06.991Z,90.10
2018-10-09T02:42:35.286Z,90.10
2018-10-09T02:45:03.595Z,90.00
2018-10-09T02:47:32.142Z,90.00
2018-10-09T02:50:00.459Z,89.80
2018-10-09T02:52:28.750Z,89.60
2018-10-09T02:54:57.039Z,89.50
2018-10-09T02:57:25.342Z,89.50
2018-10-09T02:59:53.636Z,89.10
2018-10-09T03:02:21.935Z,89.00
2018-10-09T03:04:50.212Z,89.20
2018-10-09T03:07:18.506Z,89.10
2018-10-09T03:09:46.795Z,88.70
2018-10-09T03:12:15.093Z,89.20
2018-10-09T03:14:43.371Z,89.20
2018-10-09T03:17:11.662Z,89.10
2018-10-09T03:19:39.951Z,88.90
2018-10-09T03:22:08.311Z,88.90
2018-10-09T03:24:36.613Z,88.80
2018-10-09T03:27:04.915Z,88.80
2018-10-09T03:29:33.192Z,89.10
2018-10-09T03:32:01.486Z,88.80
2018-10-09T03:34:29.760Z,89.10
2018-10-09T03:36:58.075Z,88.90
2018-10-09T03:39:26.370Z,88.80
2018-10-09T03:41:54.658Z,89.00
2018-10-09T03:44:22.952Z,88.80
2018-10-09T03:46:51.258Z,88.90
2018-10-09T03:49:19.538Z,88.70
2018-10-09T03:51:48.062Z,88.50
2018-10-09T03:54:16.438Z,88.70
2018-10-09T03:56:44.738Z,88.80
2018-10-09T03:59:13.018Z,89.20
2018-10-09T04:01:41.568Z,89.10
2018-10-09T04:04:09.841Z,88.90
2018-10-09T04:06:38.163Z,88.90
2018-10-09T04:09:09.728Z,88.80
2018-10-09T04:11:37.986Z,88.90
2018-10-09T04:14:06.291Z,88.70
2018-10-09T04:16:34.588Z,88.50
2018-10-09T04:19:02.870Z,88.50
2018-10-09T04:21:31.339Z,88.40
2018-10-09T04:23:59.791Z,88.20
2018-10-09T04:26:28.106Z,88.10
2018-10-09T04:28:56.403Z,88.30
2018-10-09T04:31:24.691Z,88.30
2018-10-09T04:33:52.999Z,88.10
2018-10-09T04:36:21.278Z,88.40
2018-10-09T04:38:49.570Z,88.20
2018-10-09T04:41:17.870Z,88.20
2018-10-09T04:43:46.202Z,88.40
2018-10-09T04:46:14.486Z,88.80
2018-10-09T04:48:42.790Z,88.90
2018-10-09T04:51:11.066Z,88.60
2018-10-09T04:53:39.378Z,88.80
2018-10-09T04:56:07.657Z,89.10
2018-10-09T04:58:35.955Z,89.00
2018-10-09T05:01:04.234Z,88.90
2018-10-09T05:03:32.654Z,88.90
2018-10-09T05:06:01.016Z,89.00
2018-10-09T05:08:29.351Z,89.20
2018-10-09T05:10:57.629Z,89.40
2018-10-09T05:13:25.931Z,89.40
2018-10-09T05:15:54.214Z,89.50
2018-10-09T05:18:22.507Z,89.50
2018-10-09T05:20:50.790Z,89.80
2018-10-09T05:23:19.149Z,89.70
2018-10-09T05:25:47.400Z,89.70
2018-10-09T05:28:15.700Z,89.80
2018-10-09T05:30:43.982Z,90.00
2018-10-09T05:33:12.282Z,90.00
2018-10-09T05:35:40.563Z,90.10
2018-10-09T05:38:08.871Z,90.00
2018-10-09T05:40:37.147Z,90.10
2018-10-09T05:43:05.914Z,90.00
2018-10-09T05:45:38.379Z,90.10
2018-10-09T05:48:07.384Z,90.20
2018-10-09T05:50:35.665Z,90.30
2018-10-09T05:53:03.969Z,90.30
2018-10-09T05:55:32.269Z,90.40
2018-10-09T05:58:00.649Z,90.40
2018-10-09T06:00:28.896Z,90.40
2018-10-09T06:02:57.191Z,90.30
2018-10-09T06:05:25.587Z,90.40
2018-10-09T06:07:54.113Z,90.50
2018-10-09T06:10:22.403Z,90.50
2018-10-09T06:12:50.694Z,90.60
2018-10-09T06:15:19.027Z,90.70
2018-10-09T06:17:47.331Z,90.70
2018-10-09T06:20:15.707Z,90.90
2018-10-09T06:22:44.011Z,91.00
2018-10-09T06:25:12.282Z,91.20
2018-10-09T06:27:40.628Z,91.20
2018-10-09T06:30:08.905Z,91.10
2018-10-09T06:32:37.212Z,91.20
2018-10-09T06:35:05.511Z,91.20
2018-10-09T06:37:40.222Z,91.30
2018-10-09T06:40:08.498Z,91.40
2018-10-09T06:42:43.527Z,91.60
2018-10-09T06:45:11.795Z,91.60
2018-10-09T06:47:40.192Z,91.70
2018-10-09T06:50:08.399Z,91.90
2018-10-09T06:52:36.698Z,92.20
2018-10-09T06:55:05.023Z,92.50
2018-10-09T06:57:33.304Z,92.70
2018-10-09T07:00:01.662Z,92.90
2018-10-09T07:02:29.915Z,93.10
2018-10-09T07:04:58.210Z,93.20
2018-10-09T07:07:26.500Z,93.20
2018-10-09T07:09:54.812Z,93.30
2018-10-09T07:12:23.099Z,93.30
2018-10-09T07:14:51.409Z,93.40
2018-10-09T07:17:19.695Z,93.70
2018-10-09T07:19:47.998Z,93.40
2018-10-09T07:22:16.288Z,93.50
2018-10-09T07:24:44.596Z,93.70
2018-10-09T07:27:12.888Z,93.70
2018-10-09T07:29:41.218Z,93.90
2018-10-09T07:32:09.504Z,94.00
2018-10-09T07:34:37.801Z,94.20
2018-10-09T07:37:06.448Z,94.30
2018-10-09T07:39:34.763Z,94.40
2018-10-09T07:42:03.058Z,94.40
2018-10-09T07:44:31.389Z,94.40
2018-10-09T07:46:59.686Z,94.40
2018-10-09T07:49:27.991Z,94.50
2018-10-09T07:51:56.283Z,94.60
2018-10-09T07:54:24.610Z,94.70
2018-10-09T07:56:52.907Z,94.80
2018-10-09T07:59:21.222Z,94.80
2018-10-09T08:01:49.515Z,94.70
2018-10-09T08:04:17.833Z,94.90
2018-10-09T08:06:46.116Z,94.80
2018-10-09T08:09:14.433Z,95.20
2018-10-09T08:11:42.777Z,94.90
2018-10-09T08:14:11.088Z,94.90
2018-10-09T08:16:39.373Z,94.80
2018-10-09T08:19:07.680Z,94.90
2018-10-09T08:21:35.971Z,94.90
2018-10-09T08:24:05.107Z,94.90
2018-10-09T08:26:33.395Z,94.70
2018-10-09T08:29:01.712Z,94.60
2018-10-09T08:31:30.005Z,94.50
2018-10-09T08:33:58.317Z,94.70
2018-10-09T08:36:26.610Z,94.40
2018-10-09T08:38:55.155Z,94.20
2018-10-09T08:41:23.496Z,94.20
2018-10-09T08:43:51.824Z,94.10
2018-10-09T08:46:20.199Z,93.90
2018-10-09T08:48:48.478Z,94.10
2018-10-09T08:51:16.768Z,93.50
2018-10-09T08:53:45.079Z,93.60
2018-10-09T08:56:13.375Z,93.20
2018-10-09T08:58:41.696Z,93.20
2018-10-09T09:01:09.996Z,93.20
2018-10-09T09:03:38.402Z,93.20
2018-10-09T09:06:06.997Z,93.20
2018-10-09T09:08:35.307Z,93.00
2018-10-09T09:11:03.624Z,93.00
2018-10-09T09:13:31.927Z,92.90
2018-10-09T09:16:00.242Z,92.70
2018-10-09T09:18:28.555Z,92.40
2018-10-09T09:20:56.964Z,91.90
2018-10-09T09:23:25.265Z,91.40
2018-10-09T09:25:53.593Z,91.20
2018-10-09T09:28:21.888Z,90.90
2018-10-09T09:30:50.206Z,91.20
2018-10-09T09:33:18.532Z,90.90
2018-10-09T09:35:46.857Z,90.60
2018-10-09T09:38:15.150Z,90.40
2018-10-09T09:40:43.486Z,90.40
2018-10-09T09:43:11.799Z,90.40
2018-10-09T09:45:40.118Z,90.20
2018-10-09T09:48:08.423Z,90.00
2018-10-09T09:50:36.727Z,89.20
2018-10-09T09:53:05.027Z,88.10
2018-10-09T09:55:33.352Z,87.90
2018-10-09T09:58:01.750Z,87.80
2018-10-09T10:00:35.329Z,87.70
2018-10-09T10:03:03.667Z,87.30
2018-10-09T10:05:31.970Z,86.90
2018-10-09T10:08:00.354Z,86.60
2018-10-09T10:10:28.680Z,85.90
2018-10-09T10:12:56.978Z,86.10
2018-10-09T10:15:25.288Z,85.70
2018-10-09T10:17:53.585Z,85.80
2018-10-09T10:20:21.893Z,85.60
2018-10-09T10:22:50.189Z,84.50
2018-10-09T10:25:18.508Z,83.60
2018-10-09T10:27:46.800Z,84.00
2018-10-09T10:30:15.124Z,84.50
2018-10-09T10:32:43.424Z,83.40
2018-10-09T10:35:11.763Z,82.70
2018-10-09T10:37:40.055Z,82.80
2018-10-09T10:40:08.371Z,82.40
2018-10-09T10:42:36.673Z,82.20
2018-10-09T10:45:05.127Z,81.60
2018-10-09T10:47:33.428Z,80.90
2018-10-09T10:50:01.749Z,80.80
2018-10-09T10:52:30.070Z,80.50
2018-10-09T10:54:58.397Z,80.30
2018-10-09T10:57:26.707Z,80.20
2018-10-09T10:59:55.016Z,79.90
2018-10-09T11:02:23.321Z,79.90
2018-10-09T11:04:51.636Z,79.30
2018-10-09T11:07:19.923Z,79.80
2018-10-09T11:09:48.247Z,79.20
2018-10-09T11:12:16.596Z,78.70
2018-10-09T11:14:44.908Z,78.50
2018-10-09T11:17:13.232Z,78.50
2018-10-09T11:19:41.550Z,79.20
2018-10-09T11:22:09.855Z,79.30
2018-10-09T11:24:38.158Z,78.60
2018-10-09T11:27:06.655Z,78.20
2018-10-09T11:29:35.229Z,77.30
2018-10-09T11:32:03.556Z,77.50
2018-10-09T11:34:31.843Z,77.20
2018-10-09T11:37:00.160Z,76.60
2018-10-09T11:39:28.453Z,76.00
2018-10-09T11:41:56.776Z,76.00
2018-10-09T11:44:25.097Z,77.00
2018-10-09T11:46:53.411Z,76.90
2018-10-09T11:49:21.726Z,76.30
2018-10-09T11:51:51.050Z,75.80
2018-10-09T11:54:19.363Z,74.40
2018-10-09T11:56:47.697Z,73.60
2018-10-09T11:59:16.020Z,72.80
2018-10-09T12:01:44.354Z,73.00
2018-10-09T12:04:12.680Z,73.00
2018-10-09T12:06:41.009Z,72.50
2018-10-09T12:09:10.517Z,72.70
2018-10-09T12:11:39.314Z,71.90
2018-10-09T12:14:07.612Z,71.50
2018-10-09T12:16:35.924Z,71.10
2018-10-09T12:19:04.226Z,70.90
2018-10-09T12:21:32.630Z,70.50
2018-10-09T12:24:00.917Z,70.20
2018-10-09T12:26:29.241Z,70.20
2018-10-09T12:28:57.539Z,70.60
2018-10-09T12:31:25.856Z,69.90
2018-10-09T12:33:54.170Z,69.10
2018-10-09T12:36:22.484Z,69.00
2018-10-09T12:38:50.771Z,68.80
2018-10-09T12:41:19.079Z,68.90
2018-10-09T12:43:47.424Z,69.00
2018-10-09T12:46:15.727Z,68.70
2018-10-09T12:48:44.019Z,68.70
2018-10-09T12:51:12.322Z,68.90
2018-10-09T12:53:40.627Z,69.00
2018-10-09T12:56:08.947Z,68.60
2018-10-09T12:58:37.307Z,68.30
2018-10-09T13:01:05.588Z,68.10
2018-10-09T13:03:33.883Z,67.90
2018-10-09T13:06:08.564Z,67.80
2018-10-09T13:08:36.846Z,67.70
2018-10-09T13:11:05.158Z,68.10
2018-10-09T13:13:33.452Z,67.70
2018-10-09T13:16:01.760Z,67.30
2018-10-09T13:18:30.174Z,67.80
2018-10-09T13:20:58.594Z,67.70
2018-10-09T13:23:26.834Z,67.40
2018-10-09T13:25:55.132Z,67.10
2018-10-09T13:28:23.436Z,67.30
2018-10-09T13:30:51.795Z,67.10
2018-10-09T13:33:20.049Z,66.50
2018-10-09T13:35:48.381Z,66.30
2018-10-09T13:38:16.758Z,66.20
2018-10-09T13:40:44.986Z,66.20
2018-10-09T13:43:13.324Z,65.30
2018-10-09T13:45:41.624Z,65.90
2018-10-09T13:48:10.194Z,64.60
2018-10-09T13:50:38.536Z,64.30
2018-10-09T13:53:06.859Z,64.40
2018-10-09T13:55:35.151Z,64.30
2018-10-09T13:58:03.472Z,64.00
2018-10-09T14:00:31.837Z,63.00
2018-10-09T14:03:00.164Z,63.10
2018-10-09T14:05:28.452Z,63.70
2018-10-09T14:10:31.488Z,62.90
2018-10-09T14:12:59.801Z,62.40
2018-10-09T14:15:28.108Z,62.30
2018-10-09T14:17:56.420Z,62.70
2018-10-09T14:20:24.727Z,62.60
2018-10-09T14:22:53.195Z,62.20
2018-10-09T14:25:21.421Z,61.90
2018-10-09T14:27:49.728Z,61.60
2018-10-09T14:30:18.041Z,61.60
2018-10-09T14:32:46.347Z,61.60
2018-10-09T14:35:14.630Z,61.50
2018-10-09T14:37:42.941Z,61.60
2018-10-09T14:40:11.235Z,61.70
2018-10-09T14:42:39.547Z,61.90
2018-10-09T14:45:07.907Z,62.30
2018-10-09T14:47:36.242Z,62.60
2018-10-09T14:50:05.503Z,62.40
2018-10-09T14:52:33.812Z,62.40
2018-10-09T14:55:02.109Z,62.40
2018-10-09T14:57:30.862Z,62.50
2018-10-09T14:59:59.147Z,62.60
2018-10-09T15:02:27.464Z,63.00
2018-10-09T15:04:56.055Z,63.10
2018-10-09T15:07:24.370Z,63.30
2018-10-09T15:09:52.651Z,63.40
2018-10-09T15:12:20.970Z,63.50
2018-10-09T15:14:49.263Z,63.60
2018-10-09T15:17:17.631Z,63.70
2018-10-09T15:19:45.903Z,64.50
2018-10-09T15:22:14.252Z,63.90
2018-10-09T15:24:42.608Z,64.20
2018-10-09T15:27:10.920Z,64.40
2018-10-09T15:29:39.217Z,64.60
2018-10-09T15:32:07.526Z,64.80
2018-10-09T15:34:35.828Z,65.20
2018-10-09T15:37:04.143Z,65.60
2018-10-09T15:39:32.434Z,65.80
2018-10-09T15:42:00.760Z,65.90
2018-10-09T15:44:29.094Z,65.90
2018-10-09T15:46:57.432Z,66.40
2018-10-09T15:49:25.747Z,66.80
2018-10-09T15:51:54.063Z,67.10
2018-10-09T15:54:22.392Z,67.40
2018-10-09T15:56:50.711Z,67.70
2018-10-09T15:59:19.035Z,68.00
2018-10-09T16:01:47.343Z,68.20
2018-10-09T16:04:15.714Z,68.40
2018-10-09T16:06:43.979Z,68.70
2018-10-09T16:09:12.496Z,68.90
2018-10-09T16:11:40.831Z,69.10
2018-10-09T16:14:09.155Z,69.40
2018-10-09T16:16:37.451Z,69.60
2018-10-09T16:19:06.008Z,69.90
2018-10-09T16:21:34.308Z,70.20
2018-10-09T16:24:02.623Z,70.40
2018-10-09T16:26:30.924Z,70.70
2018-10-09T16:28:59.243Z,70.90
2018-10-09T16:31:27.531Z,71.30
2018-10-09T16:33:55.850Z,71.80
2018-10-09T16:36:24.206Z,72.20
2018-10-09T16:38:52.530Z,72.50
2018-10-09T16:41:20.835Z,72.90
2018-10-09T16:43:49.188Z,73.20
2018-10-09T16:46:17.516Z,73.60
2018-10-09T16:48:45.840Z,73.80
2018-10-09T16:51:14.139Z,74.00
2018-10-09T16:53:42.464Z,74.10
2018-10-09T16:56:10.779Z,74.40
2018-10-09T16:58:39.109Z,74.70
2018-10-09T17:01:07.543Z,75.10
2018-10-09T17:03:35.872Z,75.50
2018-10-09T17:06:04.170Z,75.90
2018-10-09T17:08:32.499Z,76.10
2018-10-09T17:11:00.812Z,76.30
2018-10-09T17:13:29.155Z,76.60
2018-10-09T17:15:57.471Z,76.90
2018-10-09T17:18:25.793Z,77.00
2018-10-09T17:20:54.129Z,77.20
2018-10-09T17:23:22.463Z,77.50
2018-10-09T17:25:50.763Z,77.70
2018-10-09T17:28:19.116Z,77.70
2018-10-09T17:30:47.416Z,77.90
2018-10-09T17:33:15.807Z,78.20
2018-10-09T17:35:44.082Z,78.40
2018-10-09T17:38:12.408Z,78.80
2018-10-09T17:40:40.804Z,78.80
2018-10-09T17:43:09.147Z,78.90
2018-10-09T17:45:37.468Z,79.00
2018-10-09T17:48:05.792Z,79.10
2018-10-09T17:50:34.092Z,79.20
2018-10-09T17:53:03.027Z,79.30
2018-10-09T17:55:31.384Z,79.50
2018-10-09T17:57:59.716Z,79.70
2018-10-09T18:00:28.061Z,80.10
2018-10-09T18:02:56.436Z,80.20
2018-10-09T18:05:24.747Z,80.30
2018-10-09T18:07:53.071Z,80.50
2018-10-09T18:10:21.479Z,80.60
2018-10-09T18:12:49.783Z,80.80
2018-10-09T18:15:18.100Z,80.80
2018-10-09T18:17:46.391Z,81.00
2018-10-09T18:20:14.731Z,81.20
2018-10-09T18:22:43.035Z,81.30
2018-10-09T18:25:11.419Z,81.40
2018-10-09T18:27:39.839Z,81.70
2018-10-09T18:30:08.744Z,81.60
2018-10-09T18:32:37.145Z,81.50
2018-10-09T18:35:05.435Z,81.60
2018-10-09T18:37:33.741Z,81.70
2018-10-09T18:40:02.182Z,81.90
2018-10-09T18:42:30.629Z,82.10
2018-10-09T18:44:59.010Z,82.30
2018-10-09T18:47:32.683Z,82.40
2018-10-09T18:50:01.050Z,82.50
2018-10-09T18:52:29.351Z,82.50
2018-10-09T18:54:58.287Z,82.70
2018-10-09T18:57:26.668Z,83.00
2018-10-09T18:59:54.988Z,83.20
2018-10-09T19:02:23.294Z,83.20
2018-10-09T19:04:51.674Z,83.40
2018-10-09T19:07:19.954Z,83.30
2018-10-09T19:09:48.353Z,83.40
2018-10-09T19:12:16.648Z,83.50
2018-10-09T19:14:44.968Z,83.60
2018-10-09T19:17:13.260Z,83.60
2018-10-09T19:19:41.571Z,83.60
2018-10-09T19:22:09.869Z,83.90
2018-10-09T19:24:38.180Z,84.20
2018-10-09T19:27:06.578Z,84.30
2018-10-09T19:29:34.904Z,84.20
2018-10-09T19:32:03.190Z,84.20
2018-10-09T19:34:31.499Z,84.20
2018-10-09T19:36:59.789Z,84.30
2018-10-09T19:39:28.107Z,84.70
2018-10-09T19:41:56.421Z,84.80
2018-10-09T19:44:24.743Z,85.00
2018-10-09T19:46:53.040Z,85.10
2018-10-09T19:49:21.357Z,85.80
2018-10-09T19:51:49.651Z,86.60
2018-10-09T19:54:17.956Z,86.60
2018-10-09T19:56:46.255Z,86.50
2018-10-09T19:59:14.610Z,86.40
2018-10-09T20:01:42.887Z,86.40
2018-10-09T20:04:11.212Z,87.10
2018-10-09T20:06:39.515Z,86.60
2018-10-09T20:09:11.731Z,86.80
2018-10-09T20:11:40.083Z,87.10
2018-10-09T20:14:09.473Z,87.30
2018-10-09T20:16:37.768Z,87.20
2018-10-09T20:19:06.475Z,87.10
2018-10-09T20:21:34.775Z,87.00
2018-10-09T20:24:03.180Z,87.00
2018-10-09T20:26:31.859Z,87.20
2018-10-09T20:29:00.163Z,87.20
2018-10-09T20:31:28.480Z,87.20
2018-10-09T20:33:56.795Z,87.40
2018-10-09T20:36:25.131Z,87.50
2018-10-09T20:38:53.514Z,87.60
2018-10-09T20:41:22.047Z,87.50
2018-10-09T20:43:50.475Z,87.50
2018-10-09T20:46:18.791Z,87.40
2018-10-09T20:48:47.148Z,87.30
2018-10-09T20:51:15.770Z,87.30
2018-10-09T20:53:44.147Z,87.50
2018-10-09T20:56:12.455Z,87.60
2018-10-09T20:58:40.754Z,87.80
2018-10-09T21:01:09.059Z,87.90
2018-10-09T21:03:37.352Z,88.00
2018-10-09T21:06:05.710Z,88.00
2018-10-09T21:08:33.993Z,88.00
2018-10-09T21:11:02.333Z,88.00
2018-10-09T21:13:30.620Z,88.20
2018-10-09T21:15:58.972Z,88.40
2018-10-09T21:18:27.272Z,88.40
2018-10-09T21:20:55.583Z,88.80
2018-10-09T21:23:23.898Z,88.70
2018-10-09T21:25:53.223Z,88.60
2018-10-09T21:28:21.520Z,88.50
2018-10-09T21:30:49.835Z,88.50
2018-10-09T21:33:18.129Z,88.50
2018-10-09T21:35:46.431Z,88.40
2018-10-09T21:38:15.360Z,88.30
2018-10-09T21:40:43.675Z,88.30
2018-10-09T21:43:11.998Z,88.50
2018-10-09T21:45:40.348Z,88.40
2018-10-09T21:48:08.649Z,88.50
2018-10-09T21:50:37.008Z,88.50
2018-10-09T21:53:05.329Z,88.60
2018-10-09T21:55:33.634Z,88.50
2018-10-09T21:58:01.923Z,88.50
2018-10-09T22:00:30.255Z,88.60
2018-10-09T22:02:58.560Z,88.90
2018-10-09T22:05:26.887Z,88.90
2018-10-09T22:07:55.186Z,88.60
2018-10-09T22:10:23.516Z,88.70
2018-10-09T22:12:51.819Z,88.50
2018-10-09T22:15:20.143Z,88.40
2018-10-09T22:17:48.436Z,88.50
2018-10-09T22:20:16.755Z,88.50
2018-10-09T22:22:45.076Z,88.50
2018-10-09T22:25:13.400Z,88.70
2018-10-09T22:27:41.699Z,88.80
2018-10-09T22:30:10.014Z,88.90
2018-10-09T22:32:38.313Z,88.90
2018-10-09T22:35:06.639Z,89.40
2018-10-09T22:37:34.951Z,88.70
2018-10-09T22:40:03.292Z,88.70
2018-10-09T22:42:31.587Z,88.90
2018-10-09T22:44:59.902Z,88.90
2018-10-09T22:47:28.224Z,89.20
2018-10-09T22:49:56.528Z,89.10
2018-10-09T22:52:24.844Z,89.10
2018-10-09T22:54:53.147Z,89.30
2018-10-09T22:57:21.468Z,88.90
2018-10-09T22:59:49.770Z,89.20
2018-10-09T23:02:18.087Z,89.00
2018-10-09T23:04:46.387Z,88.90
2018-10-09T23:07:14.704Z,89.20
2018-10-09T23:09:43.008Z,89.10
2018-10-09T23:12:11.320Z,89.20
2018-10-09T23:14:39.612Z,89.20
2018-10-09T23:17:07.927Z,89.60
2018-10-09T23:19:36.222Z,89.60
2018-10-09T23:22:04.585Z,89.60
2018-10-09T23:24:32.888Z,89.70
2018-10-09T23:27:01.200Z,89.70
2018-10-09T23:29:29.498Z,89.70
2018-10-09T23:31:57.818Z,89.60
2018-10-09T23:34:26.120Z,89.50
2018-10-09T23:36:54.431Z,89.40
2018-10-09T23:39:22.731Z,89.30
2018-10-09T23:41:51.047Z,89.40
2018-10-09T23:44:19.372Z,89.30
2018-10-09T23:46:47.695Z,89.30
2018-10-09T23:49:16.000Z,89.40
2018-10-09T23:51:44.319Z,89.30
2018-10-09T23:54:12.612Z,89.30
2018-10-09T23:56:40.936Z,89.50
2018-10-09T23:59:09.234Z,89.60
